sensor_id;sensor_type;location;lat;lon;timestamp;P1;durP1;ratioP1;P2;durP2;ratioP2
77191;SDS011;66172;48.526;8.078;2024-01-30T00:02:11;6.17;;;1.67;;
77191;SDS011;66172;48.526;8.078;2024-01-30T00:04:37;6.35;;;1.95;;
77191;SDS011;66172;48.526;8.078;2024-01-30T00:07:03;5.40;;;1.70;;
77191;SDS011;66172;48.526;8.078;2024-01-30T00:09:29;6.68;;;1.95;;
77191;SDS011;66172;48.526;8.078;2024-01-30T00:11:55;5.47;;;1.50;;
77191;SDS011;66172;48.526;8.078;2024-01-30T00:14:21;5.38;;;1.75;;
77191;SDS011;66172;48.526;8.078;2024-01-30T00:16:48;6.00;;;1.70;;
77191;SDS011;66172;48.526;8.078;2024-01-30T00:19:14;7.97;;;2.30;;
77191;SDS011;66172;48.526;8.078;2024-01-30T00:21:40;6.97;;;1.97;;
77191;SDS011;66172;48.526;8.078;2024-01-30T00:24:06;5.97;;;1.58;;
77191;SDS011;66172;48.526;8.078;2024-01-30T00:26:32;6.32;;;1.77;;
77191;SDS011;66172;48.526;8.078;2024-01-30T00:28:59;6.18;;;1.45;;
77191;SDS011;66172;48.526;8.078;2024-01-30T00:31:25;6.22;;;1.45;;
77191;SDS011;66172;48.526;8.078;2024-01-30T00:33:50;5.30;;;1.70;;
77191;SDS011;66172;48.526;8.078;2024-01-30T00:36:16;7.35;;;1.63;;
77191;SDS011;66172;48.526;8.078;2024-01-30T00:38:42;6.25;;;1.65;;
77191;SDS011;66172;48.526;8.078;2024-01-30T00:41:08;8.02;;;2.85;;
77191;SDS011;66172;48.526;8.078;2024-01-30T00:43:35;7.53;;;2.67;;
77191;SDS011;66172;48.526;8.078;2024-01-30T00:46:01;6.85;;;2.75;;
77191;SDS011;66172;48.526;8.078;2024-01-30T00:48:27;6.88;;;2.70;;
77191;SDS011;66172;48.526;8.078;2024-01-30T00:50:53;5.22;;;1.67;;
77191;SDS011;66172;48.526;8.078;2024-01-30T00:53:19;6.20;;;1.63;;
77191;SDS011;66172;48.526;8.078;2024-01-30T00:55:45;5.80;;;1.10;;
77191;SDS011;66172;48.526;8.078;2024-01-30T00:58:11;5.57;;;1.38;;
77191;SDS011;66172;48.526;8.078;2024-01-30T01:00:37;6.68;;;1.50;;
77191;SDS011;66172;48.526;8.078;2024-01-30T01:03:03;5.93;;;1.50;;
77191;SDS011;66172;48.526;8.078;2024-01-30T01:05:29;5.00;;;1.17;;
77191;SDS011;66172;48.526;8.078;2024-01-30T01:07:55;5.72;;;1.25;;
77191;SDS011;66172;48.526;8.078;2024-01-30T01:10:21;5.97;;;1.37;;
77191;SDS011;66172;48.526;8.078;2024-01-30T01:12:47;5.03;;;1.40;;
77191;SDS011;66172;48.526;8.078;2024-01-30T01:15:13;5.95;;;1.30;;
77191;SDS011;66172;48.526;8.078;2024-01-30T01:17:40;5.47;;;1.63;;
77191;SDS011;66172;48.526;8.078;2024-01-30T01:20:06;6.20;;;1.30;;
77191;SDS011;66172;48.526;8.078;2024-01-30T01:22:33;6.20;;;1.47;;
77191;SDS011;66172;48.526;8.078;2024-01-30T01:25:00;6.25;;;1.33;;
77191;SDS011;66172;48.526;8.078;2024-01-30T01:27:26;5.63;;;1.48;;
77191;SDS011;66172;48.526;8.078;2024-01-30T01:29:52;6.00;;;1.63;;
77191;SDS011;66172;48.526;8.078;2024-01-30T01:32:19;7.43;;;1.45;;
77191;SDS011;66172;48.526;8.078;2024-01-30T01:34:45;5.37;;;1.30;;
77191;SDS011;66172;48.526;8.078;2024-01-30T01:37:11;5.50;;;1.55;;
77191;SDS011;66172;48.526;8.078;2024-01-30T01:39:37;6.38;;;1.30;;
77191;SDS011;66172;48.526;8.078;2024-01-30T01:42:03;5.25;;;1.52;;
77191;SDS011;66172;48.526;8.078;2024-01-30T01:44:29;6.00;;;1.63;;
77191;SDS011;66172;48.526;8.078;2024-01-30T01:46:55;8.15;;;1.40;;
77191;SDS011;66172;48.526;8.078;2024-01-30T01:49:23;5.75;;;1.45;;
77191;SDS011;66172;48.526;8.078;2024-01-30T01:51:50;7.90;;;2.08;;
77191;SDS011;66172;48.526;8.078;2024-01-30T01:54:19;5.68;;;1.65;;
77191;SDS011;66172;48.526;8.078;2024-01-30T01:56:45;5.23;;;1.53;;
77191;SDS011;66172;48.526;8.078;2024-01-30T01:59:12;5.88;;;1.60;;
77191;SDS011;66172;48.526;8.078;2024-01-30T02:01:38;5.28;;;1.40;;
77191;SDS011;66172;48.526;8.078;2024-01-30T02:04:04;6.25;;;1.50;;
77191;SDS011;66172;48.526;8.078;2024-01-30T02:06:31;7.72;;;1.70;;
77191;SDS011;66172;48.526;8.078;2024-01-30T02:08:57;6.53;;;2.57;;
77191;SDS011;66172;48.526;8.078;2024-01-30T02:11:24;6.85;;;1.60;;
77191;SDS011;66172;48.526;8.078;2024-01-30T02:13:50;8.02;;;1.95;;
77191;SDS011;66172;48.526;8.078;2024-01-30T02:16:16;5.68;;;1.90;;
77191;SDS011;66172;48.526;8.078;2024-01-30T02:18:45;5.40;;;1.93;;
77191;SDS011;66172;48.526;8.078;2024-01-30T02:21:14;5.63;;;1.80;;
77191;SDS011;66172;48.526;8.078;2024-01-30T02:23:44;6.32;;;1.67;;
77191;SDS011;66172;48.526;8.078;2024-01-30T02:26:12;6.78;;;1.60;;
77191;SDS011;66172;48.526;8.078;2024-01-30T02:28:38;7.73;;;1.53;;
77191;SDS011;66172;48.526;8.078;2024-01-30T02:31:04;7.05;;;1.48;;
77191;SDS011;66172;48.526;8.078;2024-01-30T02:33:30;5.82;;;1.40;;
77191;SDS011;66172;48.526;8.078;2024-01-30T02:35:56;5.22;;;1.55;;
77191;SDS011;66172;48.526;8.078;2024-01-30T02:38:22;5.13;;;1.60;;
77191;SDS011;66172;48.526;8.078;2024-01-30T02:40:49;5.73;;;1.80;;
77191;SDS011;66172;48.526;8.078;2024-01-30T02:43:15;6.22;;;1.50;;
77191;SDS011;66172;48.526;8.078;2024-01-30T02:45:41;5.40;;;1.50;;
77191;SDS011;66172;48.526;8.078;2024-01-30T02:48:07;5.35;;;1.30;;
77191;SDS011;66172;48.526;8.078;2024-01-30T02:50:33;5.35;;;1.38;;
77191;SDS011;66172;48.526;8.078;2024-01-30T02:52:59;6.40;;;1.53;;
77191;SDS011;66172;48.526;8.078;2024-01-30T02:55:25;6.25;;;1.65;;
77191;SDS011;66172;48.526;8.078;2024-01-30T02:57:51;5.53;;;1.63;;
77191;SDS011;66172;48.526;8.078;2024-01-30T03:00:17;5.83;;;1.40;;
77191;SDS011;66172;48.526;8.078;2024-01-30T03:02:45;5.82;;;1.55;;
77191;SDS011;66172;48.526;8.078;2024-01-30T03:05:11;7.32;;;1.70;;
77191;SDS011;66172;48.526;8.078;2024-01-30T03:07:37;6.07;;;1.90;;
77191;SDS011;66172;48.526;8.078;2024-01-30T03:10:04;5.33;;;1.47;;
77191;SDS011;66172;48.526;8.078;2024-01-30T03:12:31;6.50;;;2.33;;
77191;SDS011;66172;48.526;8.078;2024-01-30T03:14:57;6.93;;;1.67;;
77191;SDS011;66172;48.526;8.078;2024-01-30T03:17:23;6.28;;;1.73;;
77191;SDS011;66172;48.526;8.078;2024-01-30T03:19:50;5.73;;;1.27;;
77191;SDS011;66172;48.526;8.078;2024-01-30T03:22:16;4.97;;;1.27;;
77191;SDS011;66172;48.526;8.078;2024-01-30T03:24:42;5.85;;;1.50;;
77191;SDS011;66172;48.526;8.078;2024-01-30T03:27:08;6.45;;;1.60;;
77191;SDS011;66172;48.526;8.078;2024-01-30T03:29:34;5.88;;;1.50;;
77191;SDS011;66172;48.526;8.078;2024-01-30T03:32:00;7.83;;;1.70;;
77191;SDS011;66172;48.526;8.078;2024-01-30T03:34:26;6.30;;;1.63;;
77191;SDS011;66172;48.526;8.078;2024-01-30T03:36:52;7.00;;;1.48;;
77191;SDS011;66172;48.526;8.078;2024-01-30T03:39:18;5.00;;;1.20;;
77191;SDS011;66172;48.526;8.078;2024-01-30T03:41:44;5.53;;;1.05;;
77191;SDS011;66172;48.526;8.078;2024-01-30T03:44:10;7.80;;;1.42;;
77191;SDS011;66172;48.526;8.078;2024-01-30T03:46:36;7.18;;;1.25;;
77191;SDS011;66172;48.526;8.078;2024-01-30T03:49:02;7.17;;;1.80;;
77191;SDS011;66172;48.526;8.078;2024-01-30T03:51:28;7.47;;;1.60;;
77191;SDS011;66172;48.526;8.078;2024-01-30T03:53:54;5.47;;;1.63;;
77191;SDS011;66172;48.526;8.078;2024-01-30T03:56:20;5.72;;;1.33;;
77191;SDS011;66172;48.526;8.078;2024-01-30T03:58:46;5.23;;;1.10;;
77191;SDS011;66172;48.526;8.078;2024-01-30T04:01:15;4.97;;;1.27;;
77191;SDS011;66172;48.526;8.078;2024-01-30T04:03:41;6.97;;;1.35;;
77191;SDS011;66172;48.526;8.078;2024-01-30T04:06:07;6.53;;;1.60;;
77191;SDS011;66172;48.526;8.078;2024-01-30T04:08:34;5.60;;;1.63;;
77191;SDS011;66172;48.526;8.078;2024-01-30T04:11:03;5.55;;;1.60;;
77191;SDS011;66172;48.526;8.078;2024-01-30T04:13:31;6.22;;;1.67;;
77191;SDS011;66172;48.526;8.078;2024-01-30T04:15:59;6.57;;;1.48;;
77191;SDS011;66172;48.526;8.078;2024-01-30T04:18:27;7.78;;;1.67;;
77191;SDS011;66172;48.526;8.078;2024-01-30T04:20:53;5.50;;;1.60;;
77191;SDS011;66172;48.526;8.078;2024-01-30T04:23:19;4.35;;;1.20;;
77191;SDS011;66172;48.526;8.078;2024-01-30T04:25:45;5.07;;;1.58;;
77191;SDS011;66172;48.526;8.078;2024-01-30T04:28:11;4.97;;;1.57;;
77191;SDS011;66172;48.526;8.078;2024-01-30T04:30:38;7.17;;;1.57;;
77191;SDS011;66172;48.526;8.078;2024-01-30T04:33:04;7.63;;;1.80;;
77191;SDS011;66172;48.526;8.078;2024-01-30T04:35:30;4.78;;;1.60;;
77191;SDS011;66172;48.526;8.078;2024-01-30T04:37:56;6.78;;;1.40;;
77191;SDS011;66172;48.526;8.078;2024-01-30T04:40:22;6.20;;;1.80;;
77191;SDS011;66172;48.526;8.078;2024-01-30T04:42:48;6.70;;;2.22;;
77191;SDS011;66172;48.526;8.078;2024-01-30T04:45:14;6.20;;;1.88;;
77191;SDS011;66172;48.526;8.078;2024-01-30T04:47:40;6.43;;;1.77;;
77191;SDS011;66172;48.526;8.078;2024-01-30T04:50:06;7.40;;;1.63;;
77191;SDS011;66172;48.526;8.078;2024-01-30T04:52:33;5.55;;;1.92;;
77191;SDS011;66172;48.526;8.078;2024-01-30T04:54:58;5.32;;;1.90;;
77191;SDS011;66172;48.526;8.078;2024-01-30T04:57:24;9.05;;;2.88;;
77191;SDS011;66172;48.526;8.078;2024-01-30T04:59:50;6.60;;;2.33;;
77191;SDS011;66172;48.526;8.078;2024-01-30T05:02:16;6.63;;;1.92;;
77191;SDS011;66172;48.526;8.078;2024-01-30T05:04:42;7.25;;;2.13;;
77191;SDS011;66172;48.526;8.078;2024-01-30T05:07:08;6.13;;;1.80;;
77191;SDS011;66172;48.526;8.078;2024-01-30T05:09:34;9.48;;;3.22;;
77191;SDS011;66172;48.526;8.078;2024-01-30T05:12:00;10.73;;;3.58;;
77191;SDS011;66172;48.526;8.078;2024-01-30T05:14:26;12.07;;;3.67;;
77191;SDS011;66172;48.526;8.078;2024-01-30T05:16:51;13.55;;;4.53;;
77191;SDS011;66172;48.526;8.078;2024-01-30T05:19:17;7.40;;;2.30;;
77191;SDS011;66172;48.526;8.078;2024-01-30T05:21:43;8.17;;;2.53;;
77191;SDS011;66172;48.526;8.078;2024-01-30T05:24:10;12.33;;;4.43;;
77191;SDS011;66172;48.526;8.078;2024-01-30T05:26:36;8.18;;;2.55;;
77191;SDS011;66172;48.526;8.078;2024-01-30T05:29:02;7.75;;;2.17;;
77191;SDS011;66172;48.526;8.078;2024-01-30T05:31:28;8.68;;;2.60;;
77191;SDS011;66172;48.526;8.078;2024-01-30T05:33:54;9.10;;;2.67;;
77191;SDS011;66172;48.526;8.078;2024-01-30T05:36:20;7.68;;;2.35;;
77191;SDS011;66172;48.526;8.078;2024-01-30T05:38:47;5.72;;;2.03;;
77191;SDS011;66172;48.526;8.078;2024-01-30T05:41:13;6.82;;;2.35;;
77191;SDS011;66172;48.526;8.078;2024-01-30T05:43:39;6.87;;;2.57;;
77191;SDS011;66172;48.526;8.078;2024-01-30T05:46:05;6.72;;;2.65;;
77191;SDS011;66172;48.526;8.078;2024-01-30T05:48:32;8.70;;;2.90;;
77191;SDS011;66172;48.526;8.078;2024-01-30T05:50:58;7.35;;;2.40;;
77191;SDS011;66172;48.526;8.078;2024-01-30T05:53:25;7.73;;;2.40;;
77191;SDS011;66172;48.526;8.078;2024-01-30T05:55:51;8.77;;;3.65;;
77191;SDS011;66172;48.526;8.078;2024-01-30T05:58:17;8.32;;;3.70;;
77191;SDS011;66172;48.526;8.078;2024-01-30T06:00:43;6.87;;;3.00;;
77191;SDS011;66172;48.526;8.078;2024-01-30T06:03:09;7.53;;;2.60;;
77191;SDS011;66172;48.526;8.078;2024-01-30T06:05:34;7.63;;;3.25;;
77191;SDS011;66172;48.526;8.078;2024-01-30T06:08:01;7.03;;;2.40;;
77191;SDS011;66172;48.526;8.078;2024-01-30T06:10:27;6.03;;;2.10;;
77191;SDS011;66172;48.526;8.078;2024-01-30T06:12:53;7.07;;;2.70;;
77191;SDS011;66172;48.526;8.078;2024-01-30T06:15:19;7.68;;;3.28;;
77191;SDS011;66172;48.526;8.078;2024-01-30T06:17:46;7.72;;;2.50;;
77191;SDS011;66172;48.526;8.078;2024-01-30T06:20:12;7.00;;;2.77;;
77191;SDS011;66172;48.526;8.078;2024-01-30T06:22:38;9.32;;;2.97;;
77191;SDS011;66172;48.526;8.078;2024-01-30T06:25:04;8.18;;;2.75;;
77191;SDS011;66172;48.526;8.078;2024-01-30T06:27:30;10.07;;;3.78;;
77191;SDS011;66172;48.526;8.078;2024-01-30T06:29:56;12.67;;;3.90;;
77191;SDS011;66172;48.526;8.078;2024-01-30T06:32:22;9.27;;;3.28;;
77191;SDS011;66172;48.526;8.078;2024-01-30T06:34:47;9.05;;;3.15;;
77191;SDS011;66172;48.526;8.078;2024-01-30T06:37:13;9.57;;;3.50;;
77191;SDS011;66172;48.526;8.078;2024-01-30T06:39:39;9.05;;;2.78;;
77191;SDS011;66172;48.526;8.078;2024-01-30T06:42:05;18.65;;;5.53;;
77191;SDS011;66172;48.526;8.078;2024-01-30T06:44:31;12.75;;;5.05;;
77191;SDS011;66172;48.526;8.078;2024-01-30T06:46:57;13.43;;;4.67;;
77191;SDS011;66172;48.526;8.078;2024-01-30T06:49:23;12.20;;;5.00;;
77191;SDS011;66172;48.526;8.078;2024-01-30T06:51:49;12.75;;;4.80;;
77191;SDS011;66172;48.526;8.078;2024-01-30T06:54:14;12.80;;;4.23;;
77191;SDS011;66172;48.526;8.078;2024-01-30T06:56:40;12.52;;;5.20;;
77191;SDS011;66172;48.526;8.078;2024-01-30T06:59:06;11.38;;;4.15;;
77191;SDS011;66172;48.526;8.078;2024-01-30T07:01:32;10.23;;;3.47;;
77191;SDS011;66172;48.526;8.078;2024-01-30T07:03:58;8.45;;;2.50;;
77191;SDS011;66172;48.526;8.078;2024-01-30T07:06:24;8.52;;;2.63;;
77191;SDS011;66172;48.526;8.078;2024-01-30T07:08:50;7.93;;;3.03;;
77191;SDS011;66172;48.526;8.078;2024-01-30T07:11:19;8.47;;;2.87;;
77191;SDS011;66172;48.526;8.078;2024-01-30T07:13:47;8.70;;;2.80;;
77191;SDS011;66172;48.526;8.078;2024-01-30T07:16:14;7.63;;;2.55;;
77191;SDS011;66172;48.526;8.078;2024-01-30T07:18:40;9.32;;;2.55;;
77191;SDS011;66172;48.526;8.078;2024-01-30T07:21:06;7.93;;;2.17;;
77191;SDS011;66172;48.526;8.078;2024-01-30T07:23:32;7.50;;;2.50;;
77191;SDS011;66172;48.526;8.078;2024-01-30T07:25:59;10.90;;;3.33;;
77191;SDS011;66172;48.526;8.078;2024-01-30T07:28:26;7.55;;;2.90;;
77191;SDS011;66172;48.526;8.078;2024-01-30T07:30:52;9.43;;;2.72;;
77191;SDS011;66172;48.526;8.078;2024-01-30T07:33:18;22.03;;;5.53;;
77191;SDS011;66172;48.526;8.078;2024-01-30T07:35:45;22.27;;;5.63;;
77191;SDS011;66172;48.526;8.078;2024-01-30T07:38:11;9.65;;;3.20;;
77191;SDS011;66172;48.526;8.078;2024-01-30T07:40:37;6.70;;;2.70;;
77191;SDS011;66172;48.526;8.078;2024-01-30T07:43:03;7.78;;;2.80;;
77191;SDS011;66172;48.526;8.078;2024-01-30T07:45:29;9.38;;;2.70;;
77191;SDS011;66172;48.526;8.078;2024-01-30T07:47:58;8.15;;;2.28;;
77191;SDS011;66172;48.526;8.078;2024-01-30T07:50:25;8.55;;;3.38;;
77191;SDS011;66172;48.526;8.078;2024-01-30T07:52:51;8.90;;;3.03;;
77191;SDS011;66172;48.526;8.078;2024-01-30T07:55:20;7.75;;;2.85;;
77191;SDS011;66172;48.526;8.078;2024-01-30T07:57:51;10.70;;;2.70;;
77191;SDS011;66172;48.526;8.078;2024-01-30T08:00:18;9.75;;;3.70;;
77191;SDS011;66172;48.526;8.078;2024-01-30T08:02:47;9.00;;;3.28;;
77191;SDS011;66172;48.526;8.078;2024-01-30T08:05:13;11.93;;;3.00;;
77191;SDS011;66172;48.526;8.078;2024-01-30T08:07:43;9.77;;;3.00;;
77191;SDS011;66172;48.526;8.078;2024-01-30T08:10:11;8.10;;;2.60;;
77191;SDS011;66172;48.526;8.078;2024-01-30T08:12:37;9.40;;;2.80;;
77191;SDS011;66172;48.526;8.078;2024-01-30T08:15:04;8.80;;;3.17;;
77191;SDS011;66172;48.526;8.078;2024-01-30T08:17:30;10.48;;;3.20;;
77191;SDS011;66172;48.526;8.078;2024-01-30T08:19:56;11.00;;;3.22;;
77191;SDS011;66172;48.526;8.078;2024-01-30T08:22:22;9.23;;;3.17;;
77191;SDS011;66172;48.526;8.078;2024-01-30T08:24:48;7.77;;;2.83;;
77191;SDS011;66172;48.526;8.078;2024-01-30T08:27:14;7.65;;;3.30;;
77191;SDS011;66172;48.526;8.078;2024-01-30T08:29:39;7.30;;;2.72;;
77191;SDS011;66172;48.526;8.078;2024-01-30T08:32:05;7.97;;;2.80;;
77191;SDS011;66172;48.526;8.078;2024-01-30T08:34:32;7.45;;;2.80;;
77191;SDS011;66172;48.526;8.078;2024-01-30T08:36:58;8.40;;;3.10;;
77191;SDS011;66172;48.526;8.078;2024-01-30T08:39:23;19.75;;;3.33;;
77191;SDS011;66172;48.526;8.078;2024-01-30T08:41:49;9.27;;;2.90;;
77191;SDS011;66172;48.526;8.078;2024-01-30T08:44:16;7.47;;;2.70;;
77191;SDS011;66172;48.526;8.078;2024-01-30T08:46:43;8.00;;;2.60;;
77191;SDS011;66172;48.526;8.078;2024-01-30T08:49:11;6.60;;;2.47;;
77191;SDS011;66172;48.526;8.078;2024-01-30T08:51:39;9.05;;;2.88;;
77191;SDS011;66172;48.526;8.078;2024-01-30T08:54:05;8.32;;;2.65;;
77191;SDS011;66172;48.526;8.078;2024-01-30T08:56:31;8.93;;;2.73;;
77191;SDS011;66172;48.526;8.078;2024-01-30T08:58:57;8.65;;;3.10;;
77191;SDS011;66172;48.526;8.078;2024-01-30T09:01:23;7.97;;;3.03;;
77191;SDS011;66172;48.526;8.078;2024-01-30T09:03:48;7.67;;;3.27;;
77191;SDS011;66172;48.526;8.078;2024-01-30T09:06:14;10.60;;;3.20;;
77191;SDS011;66172;48.526;8.078;2024-01-30T09:08:40;6.90;;;2.88;;
77191;SDS011;66172;48.526;8.078;2024-01-30T09:11:09;7.60;;;2.85;;
77191;SDS011;66172;48.526;8.078;2024-01-30T09:13:37;7.87;;;3.10;;
77191;SDS011;66172;48.526;8.078;2024-01-30T09:16:03;7.15;;;2.70;;
77191;SDS011;66172;48.526;8.078;2024-01-30T09:18:30;7.47;;;2.90;;
77191;SDS011;66172;48.526;8.078;2024-01-30T09:20:55;8.38;;;3.03;;
77191;SDS011;66172;48.526;8.078;2024-01-30T09:23:21;7.43;;;2.83;;
77191;SDS011;66172;48.526;8.078;2024-01-30T09:25:47;8.00;;;2.63;;
77191;SDS011;66172;48.526;8.078;2024-01-30T09:28:13;7.18;;;2.60;;
77191;SDS011;66172;48.526;8.078;2024-01-30T09:30:39;8.15;;;3.80;;
77191;SDS011;66172;48.526;8.078;2024-01-30T09:33:06;9.37;;;3.50;;
77191;SDS011;66172;48.526;8.078;2024-01-30T09:35:32;9.13;;;3.35;;
77191;SDS011;66172;48.526;8.078;2024-01-30T09:37:59;8.35;;;2.95;;
77191;SDS011;66172;48.526;8.078;2024-01-30T09:40:25;10.00;;;4.43;;
77191;SDS011;66172;48.526;8.078;2024-01-30T09:42:51;14.80;;;5.40;;
77191;SDS011;66172;48.526;8.078;2024-01-30T09:45:17;9.32;;;3.58;;
77191;SDS011;66172;48.526;8.078;2024-01-30T09:47:44;8.15;;;3.28;;
77191;SDS011;66172;48.526;8.078;2024-01-30T09:50:12;11.05;;;3.65;;
77191;SDS011;66172;48.526;8.078;2024-01-30T09:52:39;8.35;;;3.15;;
77191;SDS011;66172;48.526;8.078;2024-01-30T09:55:06;11.77;;;3.80;;
77191;SDS011;66172;48.526;8.078;2024-01-30T09:57:34;12.43;;;3.55;;
77191;SDS011;66172;48.526;8.078;2024-01-30T10:00:00;8.90;;;3.75;;
77191;SDS011;66172;48.526;8.078;2024-01-30T10:02:26;10.35;;;4.90;;
77191;SDS011;66172;48.526;8.078;2024-01-30T10:04:52;13.10;;;5.30;;
77191;SDS011;66172;48.526;8.078;2024-01-30T10:07:18;9.55;;;4.22;;
77191;SDS011;66172;48.526;8.078;2024-01-30T10:09:45;13.27;;;5.30;;
77191;SDS011;66172;48.526;8.078;2024-01-30T10:12:11;17.23;;;6.82;;
77191;SDS011;66172;48.526;8.078;2024-01-30T10:14:41;19.98;;;7.90;;
77191;SDS011;66172;48.526;8.078;2024-01-30T10:17:08;12.80;;;5.60;;
77191;SDS011;66172;48.526;8.078;2024-01-30T10:19:35;16.75;;;6.45;;
77191;SDS011;66172;48.526;8.078;2024-01-30T10:22:03;12.77;;;4.55;;
77191;SDS011;66172;48.526;8.078;2024-01-30T10:24:29;13.40;;;4.40;;
77191;SDS011;66172;48.526;8.078;2024-01-30T10:26:55;11.98;;;4.45;;
77191;SDS011;66172;48.526;8.078;2024-01-30T10:29:21;13.23;;;6.07;;
77191;SDS011;66172;48.526;8.078;2024-01-30T10:32:03;14.30;;;6.07;;
77191;SDS011;66172;48.526;8.078;2024-01-30T10:34:30;14.40;;;7.13;;
77191;SDS011;66172;48.526;8.078;2024-01-30T10:37:05;11.95;;;6.13;;
77191;SDS011;66172;48.526;8.078;2024-01-30T10:39:34;12.27;;;6.25;;
77191;SDS011;66172;48.526;8.078;2024-01-30T10:42:04;9.00;;;3.50;;
77191;SDS011;66172;48.526;8.078;2024-01-30T10:44:41;13.27;;;7.32;;
77191;SDS011;66172;48.526;8.078;2024-01-30T10:47:12;11.95;;;5.35;;
77191;SDS011;66172;48.526;8.078;2024-01-30T10:49:41;32.42;;;10.25;;
77191;SDS011;66172;48.526;8.078;2024-01-30T10:52:12;9.90;;;4.32;;
77191;SDS011;66172;48.526;8.078;2024-01-30T10:54:39;10.60;;;4.30;;
77191;SDS011;66172;48.526;8.078;2024-01-30T10:57:06;10.00;;;4.75;;
77191;SDS011;66172;48.526;8.078;2024-01-30T10:59:33;11.40;;;4.60;;
77191;SDS011;66172;48.526;8.078;2024-01-30T11:01:59;12.52;;;5.35;;
77191;SDS011;66172;48.526;8.078;2024-01-30T11:04:25;10.43;;;3.95;;
77191;SDS011;66172;48.526;8.078;2024-01-30T11:06:51;9.03;;;4.13;;
77191;SDS011;66172;48.526;8.078;2024-01-30T11:09:18;12.27;;;4.95;;
77191;SDS011;66172;48.526;8.078;2024-01-30T11:11:48;7.78;;;2.95;;
77191;SDS011;66172;48.526;8.078;2024-01-30T11:14:14;6.00;;;2.50;;
77191;SDS011;66172;48.526;8.078;2024-01-30T11:16:40;11.03;;;4.30;;
77191;SDS011;66172;48.526;8.078;2024-01-30T11:19:10;14.10;;;5.70;;
77191;SDS011;66172;48.526;8.078;2024-01-30T11:21:41;10.63;;;5.22;;
77191;SDS011;66172;48.526;8.078;2024-01-30T11:24:07;8.98;;;5.18;;
77191;SDS011;66172;48.526;8.078;2024-01-30T11:26:33;11.95;;;5.38;;
77191;SDS011;66172;48.526;8.078;2024-01-30T11:29:02;9.67;;;5.33;;
77191;SDS011;66172;48.526;8.078;2024-01-30T11:31:30;10.65;;;5.13;;
77191;SDS011;66172;48.526;8.078;2024-01-30T11:33:56;11.75;;;6.32;;
77191;SDS011;66172;48.526;8.078;2024-01-30T11:36:25;9.77;;;5.47;;
77191;SDS011;66172;48.526;8.078;2024-01-30T11:38:52;10.67;;;5.20;;
77191;SDS011;66172;48.526;8.078;2024-01-30T11:41:19;12.23;;;5.50;;
77191;SDS011;66172;48.526;8.078;2024-01-30T11:43:54;14.30;;;5.75;;
77191;SDS011;66172;48.526;8.078;2024-01-30T11:46:20;15.20;;;5.68;;
77191;SDS011;66172;48.526;8.078;2024-01-30T11:48:46;11.55;;;5.47;;
77191;SDS011;66172;48.526;8.078;2024-01-30T11:51:13;13.73;;;6.17;;
77191;SDS011;66172;48.526;8.078;2024-01-30T11:53:39;12.85;;;5.30;;
77191;SDS011;66172;48.526;8.078;2024-01-30T11:56:07;11.23;;;4.93;;
77191;SDS011;66172;48.526;8.078;2024-01-30T11:58:34;11.18;;;4.82;;
77191;SDS011;66172;48.526;8.078;2024-01-30T12:01:00;10.20;;;4.30;;
77191;SDS011;66172;48.526;8.078;2024-01-30T12:03:26;10.20;;;4.72;;
77191;SDS011;66172;48.526;8.078;2024-01-30T12:05:56;11.63;;;5.35;;
77191;SDS011;66172;48.526;8.078;2024-01-30T12:08:23;13.00;;;5.55;;
77191;SDS011;66172;48.526;8.078;2024-01-30T12:10:55;13.98;;;5.88;;
77191;SDS011;66172;48.526;8.078;2024-01-30T12:13:23;10.27;;;4.97;;
77191;SDS011;66172;48.526;8.078;2024-01-30T12:15:49;14.68;;;5.30;;
77191;SDS011;66172;48.526;8.078;2024-01-30T12:18:21;13.23;;;5.30;;
77191;SDS011;66172;48.526;8.078;2024-01-30T12:20:56;10.38;;;5.10;;
77191;SDS011;66172;48.526;8.078;2024-01-30T12:23:24;12.33;;;4.60;;
77191;SDS011;66172;48.526;8.078;2024-01-30T12:25:51;12.13;;;5.13;;
77191;SDS011;66172;48.526;8.078;2024-01-30T12:28:18;10.35;;;5.18;;
77191;SDS011;66172;48.526;8.078;2024-01-30T12:30:45;12.15;;;5.30;;
77191;SDS011;66172;48.526;8.078;2024-01-30T12:33:17;11.15;;;4.95;;
77191;SDS011;66172;48.526;8.078;2024-01-30T12:35:46;9.73;;;5.00;;
77191;SDS011;66172;48.526;8.078;2024-01-30T12:38:13;11.73;;;4.80;;
77191;SDS011;66172;48.526;8.078;2024-01-30T12:40:40;9.93;;;4.85;;
77191;SDS011;66172;48.526;8.078;2024-01-30T12:43:06;9.10;;;4.57;;
77191;SDS011;66172;48.526;8.078;2024-01-30T12:45:32;10.68;;;4.65;;
77191;SDS011;66172;48.526;8.078;2024-01-30T12:47:58;11.30;;;4.40;;
77191;SDS011;66172;48.526;8.078;2024-01-30T12:50:24;11.38;;;4.60;;
77191;SDS011;66172;48.526;8.078;2024-01-30T12:52:50;8.60;;;4.00;;
77191;SDS011;66172;48.526;8.078;2024-01-30T12:55:16;12.10;;;4.60;;
77191;SDS011;66172;48.526;8.078;2024-01-30T12:57:43;12.23;;;4.43;;
77191;SDS011;66172;48.526;8.078;2024-01-30T13:00:09;10.73;;;4.43;;
77191;SDS011;66172;48.526;8.078;2024-01-30T13:02:35;8.10;;;4.03;;
77191;SDS011;66172;48.526;8.078;2024-01-30T13:05:02;10.20;;;4.20;;
77191;SDS011;66172;48.526;8.078;2024-01-30T13:07:29;8.65;;;3.60;;
77191;SDS011;66172;48.526;8.078;2024-01-30T13:09:56;10.70;;;4.03;;
77191;SDS011;66172;48.526;8.078;2024-01-30T13:12:27;8.35;;;3.42;;
77191;SDS011;66172;48.526;8.078;2024-01-30T13:14:53;8.68;;;3.80;;
77191;SDS011;66172;48.526;8.078;2024-01-30T13:17:20;8.18;;;3.60;;
77191;SDS011;66172;48.526;8.078;2024-01-30T13:19:46;8.10;;;3.00;;
77191;SDS011;66172;48.526;8.078;2024-01-30T13:22:12;8.50;;;3.17;;
77191;SDS011;66172;48.526;8.078;2024-01-30T13:24:38;7.82;;;2.83;;
77191;SDS011;66172;48.526;8.078;2024-01-30T13:27:03;8.25;;;2.70;;
77191;SDS011;66172;48.526;8.078;2024-01-30T13:29:31;9.13;;;3.97;;
77191;SDS011;66172;48.526;8.078;2024-01-30T13:31:57;10.43;;;3.70;;
77191;SDS011;66172;48.526;8.078;2024-01-30T13:34:23;9.90;;;3.17;;
77191;SDS011;66172;48.526;8.078;2024-01-30T13:36:49;9.00;;;3.30;;
77191;SDS011;66172;48.526;8.078;2024-01-30T13:39:15;7.23;;;3.33;;
77191;SDS011;66172;48.526;8.078;2024-01-30T13:41:41;7.75;;;3.42;;
77191;SDS011;66172;48.526;8.078;2024-01-30T13:44:07;8.63;;;2.90;;
77191;SDS011;66172;48.526;8.078;2024-01-30T13:46:34;7.18;;;2.70;;
77191;SDS011;66172;48.526;8.078;2024-01-30T13:49:01;9.20;;;3.23;;
77191;SDS011;66172;48.526;8.078;2024-01-30T13:51:28;9.00;;;3.53;;
77191;SDS011;66172;48.526;8.078;2024-01-30T13:53:53;7.80;;;3.83;;
77191;SDS011;66172;48.526;8.078;2024-01-30T13:56:20;6.30;;;2.65;;
77191;SDS011;66172;48.526;8.078;2024-01-30T13:58:49;7.07;;;2.77;;
77191;SDS011;66172;48.526;8.078;2024-01-30T14:01:18;7.40;;;2.83;;
77191;SDS011;66172;48.526;8.078;2024-01-30T14:03:44;6.25;;;2.88;;
77191;SDS011;66172;48.526;8.078;2024-01-30T14:06:11;6.68;;;2.72;;
77191;SDS011;66172;48.526;8.078;2024-01-30T14:08:37;7.28;;;2.88;;
77191;SDS011;66172;48.526;8.078;2024-01-30T14:11:03;7.13;;;2.63;;
77191;SDS011;66172;48.526;8.078;2024-01-30T14:13:29;10.05;;;3.10;;
77191;SDS011;66172;48.526;8.078;2024-01-30T14:15:56;6.65;;;2.80;;
77191;SDS011;66172;48.526;8.078;2024-01-30T14:18:22;8.00;;;2.72;;
77191;SDS011;66172;48.526;8.078;2024-01-30T14:20:48;12.27;;;5.13;;
77191;SDS011;66172;48.526;8.078;2024-01-30T14:23:14;8.23;;;2.97;;
77191;SDS011;66172;48.526;8.078;2024-01-30T14:25:40;7.20;;;2.90;;
77191;SDS011;66172;48.526;8.078;2024-01-30T14:28:06;7.72;;;2.85;;
77191;SDS011;66172;48.526;8.078;2024-01-30T14:30:32;6.53;;;2.80;;
77191;SDS011;66172;48.526;8.078;2024-01-30T14:32:58;8.88;;;3.20;;
77191;SDS011;66172;48.526;8.078;2024-01-30T14:35:24;10.32;;;4.75;;
77191;SDS011;66172;48.526;8.078;2024-01-30T14:37:49;31.80;;;14.23;;
77191;SDS011;66172;48.526;8.078;2024-01-30T14:40:17;37.13;;;16.33;;